sensor_id;sensor_type;location;lat;lon;timestamp;temperature;humidity
21001;DHT22;10658;50.920;12.238;2024-01-11T00:01:51;-10.20;99.90
21001;DHT22;10658;50.920;12.238;2024-01-11T00:05:52;-10.20;99.90
21001;DHT22;10658;50.920;12.238;2024-01-11T00:09:53;-10.20;99.90
21001;DHT22;10658;50.920;12.238;2024-01-11T00:13:53;-10.10;99.90
21001;DHT22;10658;50.920;12.238;2024-01-11T00:17:54;-10.10;99.90
21001;DHT22;10658;50.920;12.238;2024-01-11T00:21:55;-10.10;99.90
21001;DHT22;10658;50.920;12.238;2024-01-11T00:25:56;-10.10;99.90
21001;DHT22;10658;50.920;12.238;2024-01-11T00:29:56;-10.20;99.90
21001;DHT22;10658;50.920;12.238;2024-01-11T00:33:57;-10.20;99.90
21001;DHT22;10658;50.920;12.238;2024-01-11T00:37:58;-10.30;99.90
21001;DHT22;10658;50.920;12.238;2024-01-11T00:41:59;-10.30;99.90
21001;DHT22;10658;50.920;12.238;2024-01-11T00:46:00;-10.20;99.90
21001;DHT22;10658;50.920;12.238;2024-01-11T00:50:01;-10.20;99.90
21001;DHT22;10658;50.920;12.238;2024-01-11T00:54:01;-10.30;99.90
21001;DHT22;10658;50.920;12.238;2024-01-11T00:58:02;-10.20;99.90
21001;DHT22;10658;50.920;12.238;2024-01-11T01:02:03;-10.10;99.90
21001;DHT22;10658;50.920;12.238;2024-01-11T01:06:04;-10.20;99.90
21001;DHT22;10658;50.920;12.238;2024-01-11T01:10:05;-10.30;99.90
21001;DHT22;10658;50.920;12.238;2024-01-11T01:14:06;-10.40;99.90
21001;DHT22;10658;50.920;12.238;2024-01-11T01:18:07;-10.60;99.90
21001;DHT22;10658;50.920;12.238;2024-01-11T01:22:08;-10.50;99.90
21001;DHT22;10658;50.920;12.238;2024-01-11T01:26:09;-10.50;99.90
21001;DHT22;10658;50.920;12.238;2024-01-11T01:30:09;-10.40;99.90
21001;DHT22;10658;50.920;12.238;2024-01-11T01:34:11;-10.50;99.90
21001;DHT22;10658;50.920;12.238;2024-01-11T01:38:12;-10.50;99.90
21001;DHT22;10658;50.920;12.238;2024-01-11T01:42:13;-10.40;99.90
21001;DHT22;10658;50.920;12.238;2024-01-11T01:46:19;-10.40;99.90
21001;DHT22;10658;50.920;12.238;2024-01-11T01:50:21;-10.40;99.90
21001;DHT22;10658;50.920;12.238;2024-01-11T01:54:22;-10.40;99.90
21001;DHT22;10658;50.920;12.238;2024-01-11T01:58:24;-10.40;99.90
21001;DHT22;10658;50.920;12.238;2024-01-11T02:02:25;-10.40;99.90
21001;DHT22;10658;50.920;12.238;2024-01-11T02:06:29;-10.50;99.90
21001;DHT22;10658;50.920;12.238;2024-01-11T02:10:33;-10.50;99.90
21001;DHT22;10658;50.920;12.238;2024-01-11T02:14:34;-10.50;99.90
21001;DHT22;10658;50.920;12.238;2024-01-11T02:18:35;-10.40;99.90
21001;DHT22;10658;50.920;12.238;2024-01-11T02:22:38;-10.50;99.90
21001;DHT22;10658;50.920;12.238;2024-01-11T02:27:01;-10.50;99.90
21001;DHT22;10658;50.920;12.238;2024-01-11T02:31:02;-10.50;99.90
21001;DHT22;10658;50.920;12.238;2024-01-11T02:35:04;-10.50;99.90
21001;DHT22;10658;50.920;12.238;2024-01-11T02:39:04;-10.60;99.90
21001;DHT22;10658;50.920;12.238;2024-01-11T02:43:09;-10.70;99.90
21001;DHT22;10658;50.920;12.238;2024-01-11T02:47:13;-10.80;99.90
21001;DHT22;10658;50.920;12.238;2024-01-11T02:51:14;-10.70;99.90
21001;DHT22;10658;50.920;12.238;2024-01-11T02:55:14;-10.70;99.90
21001;DHT22;10658;50.920;12.238;2024-01-11T02:59:15;-10.60;99.90
21001;DHT22;10658;50.920;12.238;2024-01-11T03:03:16;-10.40;99.90
21001;DHT22;10658;50.920;12.238;2024-01-11T03:07:16;-10.50;99.90
21001;DHT22;10658;50.920;12.238;2024-01-11T03:11:17;-10.50;99.90
21001;DHT22;10658;50.920;12.238;2024-01-11T03:15:18;-10.50;99.90
21001;DHT22;10658;50.920;12.238;2024-01-11T03:19:19;-10.70;99.90
21001;DHT22;10658;50.920;12.238;2024-01-11T03:23:19;-10.70;99.90
21001;DHT22;10658;50.920;12.238;2024-01-11T03:27:20;-10.60;99.90
21001;DHT22;10658;50.920;12.238;2024-01-11T03:31:21;-10.70;99.90
21001;DHT22;10658;50.920;12.238;2024-01-11T03:35:22;-10.80;99.90
21001;DHT22;10658;50.920;12.238;2024-01-11T03:39:23;-10.90;99.90
21001;DHT22;10658;50.920;12.238;2024-01-11T03:43:24;-11.00;99.90
21001;DHT22;10658;50.920;12.238;2024-01-11T03:47:25;-11.00;99.90
21001;DHT22;10658;50.920;12.238;2024-01-11T03:51:26;-10.90;99.90
21001;DHT22;10658;50.920;12.238;2024-01-11T03:55:26;-10.90;99.90
21001;DHT22;10658;50.920;12.238;2024-01-11T03:59:27;-11.00;99.90
21001;DHT22;10658;50.920;12.238;2024-01-11T04:03:28;-11.00;99.90
21001;DHT22;10658;50.920;12.238;2024-01-11T04:07:29;-11.00;99.90
21001;DHT22;10658;50.920;12.238;2024-01-11T04:11:30;-11.00;99.90
21001;DHT22;10658;50.920;12.238;2024-01-11T04:15:30;-11.00;99.90
21001;DHT22;10658;50.920;12.238;2024-01-11T04:19:31;-11.00;99.90
21001;DHT22;10658;50.920;12.238;2024-01-11T04:23:32;-10.90;99.90
21001;DHT22;10658;50.920;12.238;2024-01-11T04:27:33;-10.90;99.90
21001;DHT22;10658;50.920;12.238;2024-01-11T04:31:34;-10.90;99.90
21001;DHT22;10658;50.920;12.238;2024-01-11T04:35:35;-10.80;99.90
21001;DHT22;10658;50.920;12.238;2024-01-11T04:39:36;-11.00;99.90
21001;DHT22;10658;50.920;12.238;2024-01-11T04:43:40;-11.10;99.90
21001;DHT22;10658;50.920;12.238;2024-01-11T04:47:44;-11.10;99.90
21001;DHT22;10658;50.920;12.238;2024-01-11T04:51:45;-11.10;99.90
21001;DHT22;10658;50.920;12.238;2024-01-11T04:55:46;-11.10;99.90
21001;DHT22;10658;50.920;12.238;2024-01-11T04:59:46;-10.90;99.90
21001;DHT22;10658;50.920;12.238;2024-01-11T05:03:47;-10.80;99.90
21001;DHT22;10658;50.920;12.238;2024-01-11T05:07:48;-10.80;99.90
21001;DHT22;10658;50.920;12.238;2024-01-11T05:11:49;-10.90;99.90
21001;DHT22;10658;50.920;12.238;2024-01-11T05:15:50;-10.80;99.90
21001;DHT22;10658;50.920;12.238;2024-01-11T05:19:50;-10.80;99.90
21001;DHT22;10658;50.920;12.238;2024-01-11T05:23:51;-10.80;99.90
21001;DHT22;10658;50.920;12.238;2024-01-11T05:27:53;-10.90;99.90
21001;DHT22;10658;50.920;12.238;2024-01-11T05:31:54;-10.90;99.90
21001;DHT22;10658;50.920;12.238;2024-01-11T05:35:55;-10.90;99.90
21001;DHT22;10658;50.920;12.238;2024-01-11T05:39:55;-10.90;99.90
21001;DHT22;10658;50.920;12.238;2024-01-11T05:43:57;-10.90;99.90
21001;DHT22;10658;50.920;12.238;2024-01-11T05:47:58;-10.80;99.90
21001;DHT22;10658;50.920;12.238;2024-01-11T05:51:58;-10.80;99.90
21001;DHT22;10658;50.920;12.238;2024-01-11T05:55:59;-10.80;99.90
21001;DHT22;10658;50.920;12.238;2024-01-11T06:00:00;-10.80;99.90
21001;DHT22;10658;50.920;12.238;2024-01-11T06:04:01;-10.90;99.90
21001;DHT22;10658;50.920;12.238;2024-01-11T06:08:01;-11.00;99.90
21001;DHT22;10658;50.920;12.238;2024-01-11T06:12:02;-10.90;99.90
21001;DHT22;10658;50.920;12.238;2024-01-11T06:16:03;-10.90;99.90
21001;DHT22;10658;50.920;12.238;2024-01-11T06:20:04;-11.00;99.90
21001;DHT22;10658;50.920;12.238;2024-01-11T06:24:05;-10.90;99.90
21001;DHT22;10658;50.920;12.238;2024-01-11T06:28:06;-10.90;99.90
21001;DHT22;10658;50.920;12.238;2024-01-11T06:32:09;-10.90;99.90
21001;DHT22;10658;50.920;12.238;2024-01-11T06:36:09;-10.80;99.90
21001;DHT22;10658;50.920;12.238;2024-01-11T06:40:11;-10.80;99.90
21001;DHT22;10658;50.920;12.238;2024-01-11T06:44:11;-10.80;99.90
21001;DHT22;10658;50.920;12.238;2024-01-11T06:48:12;-10.70;99.90
21001;DHT22;10658;50.920;12.238;2024-01-11T06:52:13;-10.80;99.90
21001;DHT22;10658;50.920;12.238;2024-01-11T06:56:18;-10.80;99.90
21001;DHT22;10658;50.920;12.238;2024-01-11T07:00:20;-10.90;99.90
21001;DHT22;10658;50.920;12.238;2024-01-11T07:04:22;-10.90;99.90
21001;DHT22;10658;50.920;12.238;2024-01-11T07:08:22;-10.90;99.90
21001;DHT22;10658;50.920;12.238;2024-01-11T07:12:23;-10.90;99.90
21001;DHT22;10658;50.920;12.238;2024-01-11T07:16:24;-10.90;99.90
21001;DHT22;10658;50.920;12.238;2024-01-11T07:20:25;-10.80;99.90
21001;DHT22;10658;50.920;12.238;2024-01-11T07:24:25;-10.70;99.90
21001;DHT22;10658;50.920;12.238;2024-01-11T07:28:26;-10.60;99.90
21001;DHT22;10658;50.920;12.238;2024-01-11T07:32:27;-10.60;99.90
21001;DHT22;10658;50.920;12.238;2024-01-11T07:36:28;-10.30;99.90
21001;DHT22;10658;50.920;12.238;2024-01-11T07:40:29;-10.00;99.90
21001;DHT22;10658;50.920;12.238;2024-01-11T07:44:30;-9.90;99.90
21001;DHT22;10658;50.920;12.238;2024-01-11T07:48:31;-9.70;99.90
21001;DHT22;10658;50.920;12.238;2024-01-11T07:52:32;-9.70;99.90
21001;DHT22;10658;50.920;12.238;2024-01-11T07:56:32;-9.60;99.90
21001;DHT22;10658;50.920;12.238;2024-01-11T08:00:34;-9.50;99.90
21001;DHT22;10658;50.920;12.238;2024-01-11T08:04:34;-9.10;99.90
21001;DHT22;10658;50.920;12.238;2024-01-11T08:08:35;-8.80;99.90
21001;DHT22;10658;50.920;12.238;2024-01-11T08:12:37;-8.80;99.90
21001;DHT22;10658;50.920;12.238;2024-01-11T08:16:38;-8.70;99.90
21001;DHT22;10658;50.920;12.238;2024-01-11T08:20:39;-8.60;99.90
21001;DHT22;10658;50.920;12.238;2024-01-11T08:24:40;-8.60;99.90
21001;DHT22;10658;50.920;12.238;2024-01-11T08:28:41;-8.60;99.90
21001;DHT22;10658;50.920;12.238;2024-01-11T08:32:42;-8.60;99.90
21001;DHT22;10658;50.920;12.238;2024-01-11T08:36:42;-8.60;99.90
21001;DHT22;10658;50.920;12.238;2024-01-11T08:40:43;-8.60;99.90
21001;DHT22;10658;50.920;12.238;2024-01-11T08:44:45;-8.50;99.90
21001;DHT22;10658;50.920;12.238;2024-01-11T08:48:46;-8.40;99.90
21001;DHT22;10658;50.920;12.238;2024-01-11T08:52:46;-8.20;99.90
21001;DHT22;10658;50.920;12.238;2024-01-11T08:56:47;-8.00;99.90
21001;DHT22;10658;50.920;12.238;2024-01-11T09:00:48;-7.80;99.90
21001;DHT22;10658;50.920;12.238;2024-01-11T09:04:49;-7.60;99.90
21001;DHT22;10658;50.920;12.238;2024-01-11T09:08:49;-7.40;99.90
21001;DHT22;10658;50.920;12.238;2024-01-11T09:12:50;-7.20;99.90
21001;DHT22;10658;50.920;12.238;2024-01-11T09:16:51;-7.00;99.90
21001;DHT22;10658;50.920;12.238;2024-01-11T09:20:51;-6.80;99.90
21001;DHT22;10658;50.920;12.238;2024-01-11T09:24:52;-6.70;99.90
21001;DHT22;10658;50.920;12.238;2024-01-11T09:28:53;-6.60;99.90
21001;DHT22;10658;50.920;12.238;2024-01-11T09:32:53;-6.50;99.90
21001;DHT22;10658;50.920;12.238;2024-01-11T09:36:54;-6.50;99.90
21001;DHT22;10658;50.920;12.238;2024-01-11T09:41:07;-6.40;99.90
21001;DHT22;10658;50.920;12.238;2024-01-11T09:45:17;-6.40;99.90
21001;DHT22;10658;50.920;12.238;2024-01-11T09:49:19;-6.20;99.90
21001;DHT22;10658;50.920;12.238;2024-01-11T09:53:24;-6.20;99.90
21001;DHT22;10658;50.920;12.238;2024-01-11T09:57:30;-6.00;99.90
21001;DHT22;10658;50.920;12.238;2024-01-11T10:01:31;-5.90;99.90
21001;DHT22;10658;50.920;12.238;2024-01-11T10:05:34;-5.70;99.90
21001;DHT22;10658;50.920;12.238;2024-01-11T10:09:35;-5.50;99.90
21001;DHT22;10658;50.920;12.238;2024-01-11T10:13:36;-5.40;99.90
21001;DHT22;10658;50.920;12.238;2024-01-11T10:17:41;-5.30;99.90
21001;DHT22;10658;50.920;12.238;2024-01-11T10:21:43;-5.20;99.90
21001;DHT22;10658;50.920;12.238;2024-01-11T10:25:43;-5.00;99.90
21001;DHT22;10658;50.920;12.238;2024-01-11T10:29:45;-5.00;99.90
21001;DHT22;10658;50.920;12.238;2024-01-11T10:33:46;-4.80;99.90
21001;DHT22;10658;50.920;12.238;2024-01-11T10:37:50;-4.70;99.90
21001;DHT22;10658;50.920;12.238;2024-01-11T10:41:53;-4.80;99.90
21001;DHT22;10658;50.920;12.238;2024-01-11T10:45:59;-4.70;99.90
21001;DHT22;10658;50.920;12.238;2024-01-11T10:50:01;-4.70;99.90
21001;DHT22;10658;50.920;12.238;2024-01-11T10:54:03;-4.60;99.90
21001;DHT22;10658;50.920;12.238;2024-01-11T10:58:05;-4.40;99.90
21001;DHT22;10658;50.920;12.238;2024-01-11T11:02:06;-4.30;99.90
21001;DHT22;10658;50.920;12.238;2024-01-11T11:06:09;-4.20;99.90
21001;DHT22;10658;50.920;12.238;2024-01-11T11:10:12;-4.20;99.90
21001;DHT22;10658;50.920;12.238;2024-01-11T11:14:17;-4.20;99.90
21001;DHT22;10658;50.920;12.238;2024-01-11T11:18:19;-4.00;99.90
21001;DHT22;10658;50.920;12.238;2024-01-11T11:22:21;-3.90;99.90
21001;DHT22;10658;50.920;12.238;2024-01-11T11:26:22;-3.80;99.90
21001;DHT22;10658;50.920;12.238;2024-01-11T11:30:22;-3.70;99.90
21001;DHT22;10658;50.920;12.238;2024-01-11T11:34:43;-3.50;99.90
21001;DHT22;10658;50.920;12.238;2024-01-11T11:38:45;-3.40;99.90
21001;DHT22;10658;50.920;12.238;2024-01-11T11:42:46;-3.20;99.90
21001;DHT22;10658;50.920;12.238;2024-01-11T11:46:46;-3.10;99.90
21001;DHT22;10658;50.920;12.238;2024-01-11T11:51:01;-3.00;99.90
21001;DHT22;10658;50.920;12.238;2024-01-11T11:55:03;-2.90;99.90
21001;DHT22;10658;50.920;12.238;2024-01-11T11:59:05;-2.80;99.90
21001;DHT22;10658;50.920;12.238;2024-01-11T12:03:08;-2.80;99.90
21001;DHT22;10658;50.920;12.238;2024-01-11T12:07:10;-2.70;99.90
21001;DHT22;10658;50.920;12.238;2024-01-11T12:11:17;-2.60;99.90
21001;DHT22;10658;50.920;12.238;2024-01-11T12:15:18;-2.50;99.90
21001;DHT22;10658;50.920;12.238;2024-01-11T12:19:19;-2.30;99.90
21001;DHT22;10658;50.920;12.238;2024-01-11T12:23:20;-2.30;99.90
21001;DHT22;10658;50.920;12.238;2024-01-11T12:27:21;-2.20;99.90
21001;DHT22;10658;50.920;12.238;2024-01-11T12:31:21;-2.20;99.90
21001;DHT22;10658;50.920;12.238;2024-01-11T12:35:23;-2.00;99.90
21001;DHT22;10658;50.920;12.238;2024-01-11T12:39:27;-2.00;99.90
21001;DHT22;10658;50.920;12.238;2024-01-11T12:43:28;-1.70;99.90
21001;DHT22;10658;50.920;12.238;2024-01-11T12:47:29;-1.50;99.90
21001;DHT22;10658;50.920;12.238;2024-01-11T12:51:29;-1.30;99.90
21001;DHT22;10658;50.920;12.238;2024-01-11T12:55:30;-1.10;99.90
21001;DHT22;10658;50.920;12.238;2024-01-11T12:59:31;-0.90;99.90
21001;DHT22;10658;50.920;12.238;2024-01-11T13:03:31;-0.80;99.90
21001;DHT22;10658;50.920;12.238;2024-01-11T13:07:32;-0.80;99.90
21001;DHT22;10658;50.920;12.238;2024-01-11T13:11:34;-0.90;99.90
21001;DHT22;10658;50.920;12.238;2024-01-11T13:15:35;-0.80;99.90
21001;DHT22;10658;50.920;12.238;2024-01-11T13:19:37;-0.80;99.90
21001;DHT22;10658;50.920;12.238;2024-01-11T13:23:39;-0.90;99.90
21001;DHT22;10658;50.920;12.238;2024-01-11T13:27:40;-0.90;99.90
21001;DHT22;10658;50.920;12.238;2024-01-11T13:31:41;-0.90;99.90
21001;DHT22;10658;50.920;12.238;2024-01-11T13:35:41;-0.90;99.90
21001;DHT22;10658;50.920;12.238;2024-01-11T13:39:45;-0.90;99.90
21001;DHT22;10658;50.920;12.238;2024-01-11T13:43:46;-0.90;99.90
21001;DHT22;10658;50.920;12.238;2024-01-11T13:47:47;-1.10;99.90
21001;DHT22;10658;50.920;12.238;2024-01-11T13:51:48;-1.20;99.90
21001;DHT22;10658;50.920;12.238;2024-01-11T13:55:49;-1.40;99.90
21001;DHT22;10658;50.920;12.238;2024-01-11T13:59:49;-1.50;99.90
21001;DHT22;10658;50.920;12.238;2024-01-11T14:03:51;-1.40;99.90
21001;DHT22;10658;50.920;12.238;2024-01-11T14:07:51;-1.30;99.90
21001;DHT22;10658;50.920;12.238;2024-01-11T14:11:58;-1.20;99.90
21001;DHT22;10658;50.920;12.238;2024-01-11T14:15:59;-1.20;99.90
21001;DHT22;10658;50.920;12.238;2024-01-11T14:20:00;-1.20;99.90
21001;DHT22;10658;50.920;12.238;2024-01-11T14:24:02;-1.20;99.90
21001;DHT22;10658;50.920;12.238;2024-01-11T14:28:03;-1.30;99.90
21001;DHT22;10658;50.920;12.238;2024-01-11T14:32:04;-1.30;99.90
21001;DHT22;10658;50.920;12.238;2024-01-11T14:36:06;-1.40;99.90
21001;DHT22;10658;50.920;12.238;2024-01-11T14:40:08;-1.40;99.90
21001;DHT22;10658;50.920;12.238;2024-01-11T14:44:12;-1.40;99.90
21001;DHT22;10658;50.920;12.238;2024-01-11T14:48:12;-1.60;99.90
21001;DHT22;10658;50.920;12.238;2024-01-11T14:52:13;-1.70;99.90
21001;DHT22;10658;50.920;12.238;2024-01-11T14:56:14;-1.80;99.90
21001;DHT22;10658;50.920;12.238;2024-01-11T15:00:15;-1.80;99.90
21001;DHT22;10658;50.920;12.238;2024-01-11T15:04:17;-1.80;99.90
21001;DHT22;10658;50.920;12.238;2024-01-11T15:08:18;-1.90;99.90
21001;DHT22;10658;50.920;12.238;2024-01-11T15:12:19;-1.90;99.90
21001;DHT22;10658;50.920;12.238;2024-01-11T15:16:25;-2.00;99.90
21001;DHT22;10658;50.920;12.238;2024-01-11T15:20:26;-2.10;99.90
21001;DHT22;10658;50.920;12.238;2024-01-11T15:24:27;-2.20;99.90
21001;DHT22;10658;50.920;12.238;2024-01-11T15:28:29;-2.40;99.90
21001;DHT22;10658;50.920;12.238;2024-01-11T15:32:30;-2.40;99.90
21001;DHT22;10658;50.920;12.238;2024-01-11T15:36:31;-2.50;99.90
21001;DHT22;10658;50.920;12.238;2024-01-11T15:40:31;-2.50;99.90
21001;DHT22;10658;50.920;12.238;2024-01-11T15:44:32;-2.60;99.90
21001;DHT22;10658;50.920;12.238;2024-01-11T15:48:34;-2.70;99.90
21001;DHT22;10658;50.920;12.238;2024-01-11T15:52:36;-2.80;99.90
21001;DHT22;10658;50.920;12.238;2024-01-11T15:56:36;-2.80;99.90
21001;DHT22;10658;50.920;12.238;2024-01-11T16:00:37;-2.80;99.90
21001;DHT22;10658;50.920;12.238;2024-01-11T16:04:38;-2.90;99.90
21001;DHT22;10658;50.920;12.238;2024-01-11T16:08:39;-2.90;99.90
21001;DHT22;10658;50.920;12.238;2024-01-11T16:12:40;-3.00;99.90
21001;DHT22;10658;50.920;12.238;2024-01-11T16:16:42;-3.00;99.90
21001;DHT22;10658;50.920;12.238;2024-01-11T16:20:46;-3.00;99.90
21001;DHT22;10658;50.920;12.238;2024-01-11T16:25:17;-3.00;99.90
21001;DHT22;10658;50.920;12.238;2024-01-11T16:29:21;-3.00;99.90
21001;DHT22;10658;50.920;12.238;2024-01-11T16:33:23;-3.00;99.90
21001;DHT22;10658;50.920;12.238;2024-01-11T16:42:09;-2.90;99.90
21001;DHT22;10658;50.920;12.238;2024-01-11T16:46:52;-2.90;99.90
21001;DHT22;10658;50.920;12.238;2024-01-11T16:51:46;-2.80;99.90
21001;DHT22;10658;50.920;12.238;2024-01-11T16:55:48;-2.80;99.90
21001;DHT22;10658;50.920;12.238;2024-01-11T16:59:49;-2.80;99.90
21001;DHT22;10658;50.920;12.238;2024-01-11T17:03:51;-2.80;99.90
21001;DHT22;10658;50.920;12.238;2024-01-11T17:07:51;-2.90;99.90
21001;DHT22;10658;50.920;12.238;2024-01-11T17:11:52;-2.90;99.90
21001;DHT22;10658;50.920;12.238;2024-01-11T17:15:57;-2.90;99.90
21001;DHT22;10658;50.920;12.238;2024-01-11T17:19:58;-2.80;99.90
21001;DHT22;10658;50.920;12.238;2024-01-11T17:23:59;-2.90;99.90
21001;DHT22;10658;50.920;12.238;2024-01-11T17:28:00;-2.90;99.90
21001;DHT22;10658;50.920;12.238;2024-01-11T17:32:01;-2.90;99.90
21001;DHT22;10658;50.920;12.238;2024-01-11T17:36:01;-2.90;99.90
21001;DHT22;10658;50.920;12.238;2024-01-11T17:40:04;-2.90;99.90
21001;DHT22;10658;50.920;12.238;2024-01-11T17:44:05;-2.90;99.90
21001;DHT22;10658;50.920;12.238;2024-01-11T17:48:06;-2.90;99.90
21001;DHT22;10658;50.920;12.238;2024-01-11T17:52:10;-2.90;99.90
21001;DHT22;10658;50.920;12.238;2024-01-11T17:56:11;-2.90;99.90
21001;DHT22;10658;50.920;12.238;2024-01-11T18:00:12;-2.90;99.90
21001;DHT22;10658;50.920;12.238;2024-01-11T18:04:13;-2.90;99.90
21001;DHT22;10658;50.920;12.238;2024-01-11T18:08:14;-2.90;99.90
21001;DHT22;10658;50.920;12.238;2024-01-11T18:12:15;-2.80;99.90
21001;DHT22;10658;50.920;12.238;2024-01-11T18:16:16;-2.80;99.90
21001;DHT22;10658;50.920;12.238;2024-01-11T18:20:17;-2.80;99.90
21001;DHT22;10658;50.920;12.238;2024-01-11T18:24:18;-2.70;99.90
21001;DHT22;10658;50.920;12.238;2024-01-11T18:28:19;-2.80;99.90
21001;DHT22;10658;50.920;12.238;2024-01-11T18:32:20;-2.70;99.90
21001;DHT22;10658;50.920;12.238;2024-01-11T18:36:23;-2.70;99.90
21001;DHT22;10658;50.920;12.238;2024-01-11T18:40:26;-2.70;99.90
21001;DHT22;10658;50.920;12.238;2024-01-11T18:44:28;-2.60;99.90
21001;DHT22;10658;50.920;12.238;2024-01-11T18:48:30;-2.60;99.90
21001;DHT22;10658;50.920;12.238;2024-01-11T18:52:39;-2.60;99.90
21001;DHT22;10658;50.920;12.238;2024-01-11T18:56:42;-2.60;99.90
21001;DHT22;10658;50.920;12.238;2024-01-11T19:00:44;-2.70;99.90
21001;DHT22;10658;50.920;12.238;2024-01-11T19:04:45;-2.70;99.90
21001;DHT22;10658;50.920;12.238;2024-01-11T19:08:46;-2.70;99.90
21001;DHT22;10658;50.920;12.238;2024-01-11T19:12:47;-2.70;99.90
21001;DHT22;10658;50.920;12.238;2024-01-11T19:16:48;-2.70;99.90
21001;DHT22;10658;50.920;12.238;2024-01-11T19:20:48;-2.70;99.90
21001;DHT22;10658;50.920;12.238;2024-01-11T19:24:53;-2.70;99.90
21001;DHT22;10658;50.920;12.238;2024-01-11T19:28:54;-2.70;99.90
21001;DHT22;10658;50.920;12.238;2024-01-11T19:32:55;-2.60;99.90
21001;DHT22;10658;50.920;12.238;2024-01-11T19:36:56;-2.60;99.90
21001;DHT22;10658;50.920;12.238;2024-01-11T19:40:56;-2.60;99.90
21001;DHT22;10658;50.920;12.238;2024-01-11T19:44:57;-2.60;99.90
21001;DHT22;10658;50.920;12.238;2024-01-11T19:48:58;-2.60;99.90
21001;DHT22;10658;50.920;12.238;2024-01-11T19:53:00;-2.60;99.90
21001;DHT22;10658;50.920;12.238;2024-01-11T19:57:01;-2.50;99.90
21001;DHT22;10658;50.920;12.238;2024-01-11T20:01:01;-2.50;99.90
21001;DHT22;10658;50.920;12.238;2024-01-11T20:05:06;-2.40;99.90
21001;DHT22;10658;50.920;12.238;2024-01-11T20:09:07;-2.40;99.90
21001;DHT22;10658;50.920;12.238;2024-01-11T20:13:07;-2.40;99.90
21001;DHT22;10658;50.920;12.238;2024-01-11T20:17:08;-2.40;99.90
21001;DHT22;10658;50.920;12.238;2024-01-11T20:21:10;-2.40;99.90
21001;DHT22;10658;50.920;12.238;2024-01-11T20:25:14;-2.40;99.90
21001;DHT22;10658;50.920;12.238;2024-01-11T20:29:14;-2.30;99.90
21001;DHT22;10658;50.920;12.238;2024-01-11T20:33:15;-2.30;99.90
21001;DHT22;10658;50.920;12.238;2024-01-11T20:37:16;-2.30;99.90
21001;DHT22;10658;50.920;12.238;2024-01-11T20:41:17;-2.30;99.90
21001;DHT22;10658;50.920;12.238;2024-01-11T20:45:18;-2.30;99.90
21001;DHT22;10658;50.920;12.238;2024-01-11T20:49:22;-2.30;99.90
21001;DHT22;10658;50.920;12.238;2024-01-11T20:53:23;-2.30;99.90
21001;DHT22;10658;50.920;12.238;2024-01-11T20:57:24;-2.30;99.90
21001;DHT22;10658;50.920;12.238;2024-01-11T21:01:25;-2.30;99.90
21001;DHT22;10658;50.920;12.238;2024-01-11T21:05:26;-2.30;99.90
21001;DHT22;10658;50.920;12.238;2024-01-11T21:09:26;-2.20;99.90
21001;DHT22;10658;50.920;12.238;2024-01-11T21:13:32;-2.10;99.90
21001;DHT22;10658;50.920;12.238;2024-01-11T21:17:33;-2.10;99.90
21001;DHT22;10658;50.920;12.238;2024-01-11T21:21:39;-2.10;99.90
21001;DHT22;10658;50.920;12.238;2024-01-11T21:25:40;-2.10;99.90
21001;DHT22;10658;50.920;12.238;2024-01-11T21:29:41;-2.10;99.90
21001;DHT22;10658;50.920;12.238;2024-01-11T21:33:43;-2.10;99.90
21001;DHT22;10658;50.920;12.238;2024-01-11T21:37:45;-2.10;99.90
21001;DHT22;10658;50.920;12.238;2024-01-11T21:41:46;-2.10;99.90
21001;DHT22;10658;50.920;12.238;2024-01-11T21:45:49;-2.10;99.90
21001;DHT22;10658;50.920;12.238;2024-01-11T21:49:50;-2.00;99.90
21001;DHT22;10658;50.920;12.238;2024-01-11T21:53:50;-2.10;99.90
21001;DHT22;10658;50.920;12.238;2024-01-11T21:57:57;-2.10;99.90
21001;DHT22;10658;50.920;12.238;2024-01-11T22:01:58;-2.10;99.90
21001;DHT22;10658;50.920;12.238;2024-01-11T22:05:59;-2.10;99.90
21001;DHT22;10658;50.920;12.238;2024-01-11T22:09:59;-2.10;99.90
21001;DHT22;10658;50.920;12.238;2024-01-11T22:14:01;-2.10;99.90
21001;DHT22;10658;50.920;12.238;2024-01-11T22:18:03;-2.10;99.90
21001;DHT22;10658;50.920;12.238;2024-01-11T22:22:04;-2.10;99.90
21001;DHT22;10658;50.920;12.238;2024-01-11T22:26:05;-2.10;99.90
21001;DHT22;10658;50.920;12.238;2024-01-11T22:30:06;-2.10;99.90
21001;DHT22;10658;50.920;12.238;2024-01-11T22:34:08;-2.10;99.90
21001;DHT22;10658;50.920;12.238;2024-01-11T22:38:09;-2.00;99.90
21001;DHT22;10658;50.920;12.238;2024-01-11T22:42:09;-2.10;99.90
21001;DHT22;10658;50.920;12.238;2024-01-11T22:46:10;-2.10;99.90
21001;DHT22;10658;50.920;12.238;2024-01-11T22:50:11;-2.10;99.90
21001;DHT22;10658;50.920;12.238;2024-01-11T22:54:12;-2.10;99.90
21001;DHT22;10658;50.920;12.238;2024-01-11T22:58:13;-2.10;99.90
21001;DHT22;10658;50.920;12.238;2024-01-11T23:02:16;-2.10;99.90
21001;DHT22;10658;50.920;12.238;2024-01-11T23:06:17;-2.00;99.90
21001;DHT22;10658;50.920;12.238;2024-01-11T23:10:18;-2.00;99.90
21001;DHT22;10658;50.920;12.238;2024-01-11T23:14:19;-2.00;99.90
21001;DHT22;10658;50.920;12.238;2024-01-11T23:18:24;-2.00;99.90
21001;DHT22;10658;50.920;12.238;2024-01-11T23:22:26;-2.00;99.90
21001;DHT22;10658;50.920;12.238;2024-01-11T23:26:26;-2.00;99.90
21001;DHT22;10658;50.920;12.238;2024-01-11T23:30:27;-2.00;99.90
21001;DHT22;10658;50.920;12.238;2024-01-11T23:34:28;-2.00;99.90
21001;DHT22;10658;50.920;12.238;2024-01-11T23:38:29;-1.90;99.90
21001;DHT22;10658;50.920;12.238;2024-01-11T23:42:30;-2.00;99.90
21001;DHT22;10658;50.920;12.238;2024-01-11T23:46:31;-1.90;99.90
21001;DHT22;10658;50.920;12.238;2024-01-11T23:50:32;-1.90;99.90
21001;DHT22;10658;50.920;12.238;2024-01-11T23:54:32;-1.90;99.90
21001;DHT22;10658;50.920;12.238;2024-01-11T23:58:33;-1.80;99.90
